Time;durP1;ratioP1;P1;durP2;ratioP2;P2;SDS_P1;SDS_P2;PMS_P1;PMS_P2;Temp;Humidity;BMP_temperature;BMP_pressure;BME280_temperature;BME280_humidity;BME280_pressure;Samples;Min_cycle;Max_cycle;Signal;HPM_P1;HPM_P2
2023/09/01 00:00:14;;;;;;;16.95;7.05;;;;;;;;;;5015617;28;20041;-69
2023/09/01 00:02:47;;;;;;;14.20;7.40;;;;;;;;;;5033749;28;20132;-69
2023/09/01 00:05:12;;;;;;;13.93;7.30;;;;;;;;;;5016699;28;20116;-71
2023/09/01 00:07:38;;;;;;;15.82;7.13;;;;;;;;;;5033572;28;20052;-69
2023/09/01 00:10:05;;;;;;;15.65;7.78;;;;;;;;;;5032283;28;20037;-69
2023/09/01 00:12:31;;;;;;;13.23;7.05;;;;;;;;;;5032851;28;20064;-70
2023/09/01 00:14:57;;;;;;;14.45;6.82;;;;;;;;;;5033395;28;20065;-70
2023/09/01 00:17:23;;;;;;;15.82;7.03;;;;;;;;;;4983430;28;20558;-68
2023/09/01 00:19:50;;;;;;;15.05;7.18;;;;;;;;;;5032282;28;20037;-68
2023/09/01 00:22:16;;;;;;;17.05;7.45;;;;;;;;;;5032417;28;20140;-70
2023/09/01 00:24:41;;;;;;;22.63;8.23;;;;;;;;;;4999717;28;20041;-70
2023/09/01 00:27:07;;;;;;;16.05;7.38;;;;;;;;;;5032964;28;20114;-67
2023/09/01 00:29:34;;;;;;;18.88;7.55;;;;;;;;;;4999576;28;20116;-68
2023/09/01 00:32:00;;;;;;;20.58;7.28;;;;;;;;;;5031752;28;20091;-69
2023/09/01 00:34:26;;;;;;;17.38;7.45;;;;;;;;;;5015240;28;20045;-68
2023/09/01 00:36:52;;;;;;;17.52;7.40;;;;;;;;;;5031809;28;20045;-69
2023/09/01 00:39:18;;;;;;;13.50;7.22;;;;;;;;;;5031761;28;20038;-71
2023/09/01 00:41:44;;;;;;;14.38;7.22;;;;;;;;;;5016732;28;20055;-71
2023/09/01 00:44:13;;;;;;;15.70;7.15;;;;;;;;;;5034221;28;20472;-70
2023/09/01 00:46:43;;;;;;;19.38;7.05;;;;;;;;;;5034496;28;20045;-69
2023/09/01 00:49:10;;;;;;;18.23;7.90;;;;;;;;;;4998725;28;20479;-70
2023/09/01 00:51:36;;;;;;;17.05;8.25;;;;;;;;;;5031064;28;20461;-68
2023/09/01 00:54:02;;;;;;;15.40;7.30;;;;;;;;;;5031059;28;20045;-69
2023/09/01 00:56:27;;;;;;;15.23;7.47;;;;;;;;;;5030594;28;20072;-70
2023/09/01 00:58:53;;;;;;;14.73;7.57;;;;;;;;;;5013684;28;20120;-70
2023/09/01 01:01:19;;;;;;;15.55;7.47;;;;;;;;;;5030518;28;20045;-70
2023/09/01 01:03:47;;;;;;;15.32;7.20;;;;;;;;;;5017574;28;20029;-71
2023/09/01 01:06:15;;;;;;;17.05;7.28;;;;;;;;;;5032557;28;20033;-70
2023/09/01 01:08:46;;;;;;;17.90;8.02;;;;;;;;;;5001509;28;20102;-70
2023/09/01 01:11:17;;;;;;;20.33;8.07;;;;;;;;;;5017973;28;20785;-69
2023/09/01 01:13:46;;;;;;;13.55;7.70;;;;;;;;;;5016199;28;20029;-70
2023/09/01 01:16:13;;;;;;;14.55;7.40;;;;;;;;;;5049141;28;20051;-70
2023/09/01 01:18:40;;;;;;;17.25;7.55;;;;;;;;;;5050240;28;20102;-68
2023/09/01 01:21:07;;;;;;;19.65;7.50;;;;;;;;;;5033212;28;20041;-69
2023/09/01 01:23:33;;;;;;;21.95;7.65;;;;;;;;;;5034923;28;20068;-69
2023/09/01 01:25:59;;;;;;;16.35;7.97;;;;;;;;;;5051828;28;20083;-69
2023/09/01 01:28:25;;;;;;;15.20;7.82;;;;;;;;;;5034153;28;20041;-70
2023/09/01 01:30:51;;;;;;;18.48;7.47;;;;;;;;;;5033321;28;20047;-70
2023/09/01 01:33:29;;;;;;;18.17;8.05;;;;;;;;;;5049093;28;20043;-68
2023/09/01 01:35:55;;;;;;;19.02;8.32;;;;;;;;;;5049255;28;20592;-69
2023/09/01 01:38:26;;;;;;;20.98;7.78;;;;;;;;;;5051581;28;20048;-69
2023/09/01 01:40:53;;;;;;;23.10;8.30;;;;;;;;;;5050690;28;20037;-70
2023/09/01 01:43:23;;;;;;;24.10;8.35;;;;;;;;;;5050428;28;20063;-71
2023/09/01 01:45:49;;;;;;;14.43;7.93;;;;;;;;;;5050392;28;20052;-69
2023/09/01 01:48:15;;;;;;;17.33;7.75;;;;;;;;;;5035443;28;20052;-69
2023/09/01 01:50:41;;;;;;;17.02;7.93;;;;;;;;;;5052602;28;20055;-71
2023/09/01 01:53:07;;;;;;;17.80;8.38;;;;;;;;;;5051350;28;20037;-70
2023/09/01 01:55:34;;;;;;;19.15;7.82;;;;;;;;;;5051173;28;20460;-69
2023/09/01 01:57:59;;;;;;;20.38;7.97;;;;;;;;;;5033996;28;20040;-69
2023/09/01 02:00:27;;;;;;;18.90;8.70;;;;;;;;;;5034208;28;20048;-69
2023/09/01 02:02:53;;;;;;;17.60;8.40;;;;;;;;;;5051726;28;20227;-69
2023/09/01 02:05:21;;;;;;;15.45;8.52;;;;;;;;;;5034094;28;20037;-69
2023/09/01 02:07:46;;;;;;;14.35;8.45;;;;;;;;;;5050413;28;20044;-68
2023/09/01 02:10:12;;;;;;;18.50;8.10;;;;;;;;;;5018070;28;20040;-67
2023/09/01 02:12:39;;;;;;;19.50;8.98;;;;;;;;;;5018422;28;20371;-70
2023/09/01 02:15:08;;;;;;;18.58;8.38;;;;;;;;;;5034865;28;20036;-70
2023/09/01 02:17:37;;;;;;;19.65;8.45;;;;;;;;;;5033460;28;20111;-70
2023/09/01 02:20:16;;;;;;;16.05;8.55;;;;;;;;;;5034240;28;20055;-70
2023/09/01 02:22:50;;;;;;;17.70;8.55;;;;;;;;;;5053137;28;20111;-69
2023/09/01 02:25:16;;;;;;;18.98;8.57;;;;;;;;;;5004265;28;20065;-69
2023/09/01 02:27:42;;;;;;;20.08;7.78;;;;;;;;;;5038342;28;20588;-69
2023/09/01 02:30:10;;;;;;;18.38;8.57;;;;;;;;;;5039689;28;20107;-70
2023/09/01 02:32:36;;;;;;;16.60;8.70;;;;;;;;;;5055389;28;20495;-70
2023/09/01 02:35:05;;;;;;;19.77;8.65;;;;;;;;;;5020476;28;20060;-70
2023/09/01 02:37:32;;;;;;;14.85;8.07;;;;;;;;;;5020675;28;20135;-70
2023/09/01 02:39:57;;;;;;;21.02;8.70;;;;;;;;;;5036691;28;20503;-70
2023/09/01 02:42:23;;;;;;;14.95;8.70;;;;;;;;;;5019981;28;20057;-69
2023/09/01 02:44:49;;;;;;;16.38;8.98;;;;;;;;;;5036447;28;20533;-69
2023/09/01 02:47:16;;;;;;;18.25;8.68;;;;;;;;;;5036364;28;20511;-69
2023/09/01 02:49:42;;;;;;;25.20;10.02;;;;;;;;;;5055062;28;20493;-69
2023/09/01 02:52:08;;;;;;;20.60;9.20;;;;;;;;;;5055470;28;20033;-70
2023/09/01 02:54:34;;;;;;;19.02;9.02;;;;;;;;;;5055781;28;20381;-70
2023/09/01 02:57:01;;;;;;;17.92;8.95;;;;;;;;;;5054090;28;20040;-70
2023/09/01 02:59:27;;;;;;;21.40;10.00;;;;;;;;;;5037419;28;20036;-70
2023/09/01 03:01:53;;;;;;;18.83;10.50;;;;;;;;;;5054750;28;20045;-70
2023/09/01 03:04:21;;;;;;;26.45;10.13;;;;;;;;;;5053796;28;20064;-70
2023/09/01 03:06:46;;;;;;;17.40;9.25;;;;;;;;;;5053562;28;20029;-70
2023/09/01 03:09:12;;;;;;;21.00;10.18;;;;;;;;;;5021288;28;20139;-69
2023/09/01 03:11:38;;;;;;;18.35;10.60;;;;;;;;;;5037854;28;20029;-71
2023/09/01 03:14:04;;;;;;;18.92;10.45;;;;;;;;;;5055150;28;20043;-70
2023/09/01 03:16:31;;;;;;;23.25;10.02;;;;;;;;;;5038659;28;20092;-69
2023/09/01 03:18:59;;;;;;;18.15;9.88;;;;;;;;;;5038820;28;20045;-69
2023/09/01 03:21:30;;;;;;;16.65;9.30;;;;;;;;;;5038147;28;20339;-69
2023/09/01 03:23:57;;;;;;;17.35;10.00;;;;;;;;;;5054229;28;20388;-69
2023/09/01 03:26:23;;;;;;;14.90;9.70;;;;;;;;;;5020402;28;20497;-69
2023/09/01 03:28:49;;;;;;;18.55;8.98;;;;;;;;;;5053768;28;20033;-69
2023/09/01 03:31:15;;;;;;;20.92;8.77;;;;;;;;;;5055154;28;20048;-68
2023/09/01 03:33:43;;;;;;;17.10;8.73;;;;;;;;;;5036700;28;20464;-69
2023/09/01 03:36:10;;;;;;;13.35;8.25;;;;;;;;;;5036945;28;20119;-70
2023/09/01 03:38:36;;;;;;;20.63;8.90;;;;;;;;;;5053048;28;20075;-71
2023/09/01 03:41:03;;;;;;;15.77;8.57;;;;;;;;;;5036577;28;20041;-69
2023/09/01 03:43:28;;;;;;;17.20;9.38;;;;;;;;;;5036289;28;20428;-75
2023/09/01 03:45:57;;;;;;;20.05;8.52;;;;;;;;;;5053762;28;20061;-69
2023/09/01 03:48:24;;;;;;;16.23;8.57;;;;;;;;;;5052483;28;20048;-69
2023/09/01 03:51:08;;;;;;;18.40;8.48;;;;;;;;;;5036031;28;20041;-68
2023/09/01 03:53:35;;;;;;;18.08;8.50;;;;;;;;;;5053027;28;20051;-68
2023/09/01 03:56:22;;;;;;;19.63;8.35;;;;;;;;;;5053707;28;20028;-69
2023/09/01 03:58:51;;;;;;;21.50;8.55;;;;;;;;;;5052769;28;20434;-71
2023/09/01 04:01:19;;;;;;;18.80;8.30;;;;;;;;;;5052267;28;20039;-69
2023/09/01 04:03:47;;;;;;;15.75;8.98;;;;;;;;;;5052618;28;20033;-70
2023/09/01 04:06:13;;;;;;;24.27;9.30;;;;;;;;;;5052607;28;20526;-70
2023/09/01 04:08:39;;;;;;;18.05;9.00;;;;;;;;;;5052340;28;20191;-70
2023/09/01 04:11:07;;;;;;;13.98;8.27;;;;;;;;;;5052374;28;20174;-70
2023/09/01 04:13:33;;;;;;;22.10;9.07;;;;;;;;;;5053394;28;20439;-69
2023/09/01 04:16:01;;;;;;;22.42;8.13;;;;;;;;;;5039510;28;20044;-70
2023/09/01 04:18:27;;;;;;;19.98;8.35;;;;;;;;;;5073741;28;20472;-70
2023/09/01 04:20:55;;;;;;;17.88;8.75;;;;;;;;;;5055546;28;20432;-70
2023/09/01 04:23:21;;;;;;;14.23;7.95;;;;;;;;;;5034205;28;20045;-69
2023/09/01 04:25:47;;;;;;;22.30;9.05;;;;;;;;;;5034732;28;20063;-69
2023/09/01 04:28:17;;;;;;;17.63;9.00;;;;;;;;;;5018040;28;20431;-70
2023/09/01 04:30:43;;;;;;;17.10;8.55;;;;;;;;;;5002656;28;20499;-69
2023/09/01 04:33:09;;;;;;;25.52;8.65;;;;;;;;;;5035154;28;20152;-69
2023/09/01 04:35:36;;;;;;;17.15;8.63;;;;;;;;;;5035071;28;20049;-69
2023/09/01 04:38:02;;;;;;;27.67;8.57;;;;;;;;;;5050869;28;20048;-71
2023/09/01 04:40:30;;;;;;;21.05;8.02;;;;;;;;;;5034638;28;20115;-70
2023/09/01 04:42:57;;;;;;;19.02;8.13;;;;;;;;;;5002185;28;20492;-69
2023/09/01 04:45:23;;;;;;;19.13;7.95;;;;;;;;;;5033379;28;20095;-69
2023/09/01 04:47:52;;;;;;;20.40;8.30;;;;;;;;;;5034175;28;20157;-69
2023/09/01 04:50:19;;;;;;;16.98;7.85;;;;;;;;;;5017949;28;20044;-68
2023/09/01 04:52:45;;;;;;;18.90;8.80;;;;;;;;;;5018176;28;20035;-70
2023/09/01 04:55:11;;;;;;;13.90;7.50;;;;;;;;;;5032048;28;20399;-70
2023/09/01 04:57:37;;;;;;;16.55;7.55;;;;;;;;;;5035123;28;20086;-70
2023/09/01 05:00:04;;;;;;;17.10;7.50;;;;;;;;;;5052211;28;20131;-69
2023/09/01 05:02:31;;;;;;;22.33;7.68;;;;;;;;;;5052717;28;20036;-69
2023/09/01 05:04:57;;;;;;;20.10;7.85;;;;;;;;;;5036148;28;20347;-69
2023/09/01 05:07:22;;;;;;;15.52;7.53;;;;;;;;;;5015407;28;20432;-70
2023/09/01 05:09:49;;;;;;;17.30;7.55;;;;;;;;;;5049391;28;20491;-70
2023/09/01 05:12:15;;;;;;;24.75;8.13;;;;;;;;;;5032969;28;20039;-72
2023/09/01 05:14:42;;;;;;;17.05;7.43;;;;;;;;;;5032588;28;20372;-69
2023/09/01 05:17:08;;;;;;;22.85;7.68;;;;;;;;;;5031363;28;20042;-68
2023/09/01 05:19:33;;;;;;;18.55;6.93;;;;;;;;;;5028560;28;20033;-68
2023/09/01 05:21:59;;;;;;;21.45;6.53;;;;;;;;;;5030584;28;20368;-69
2023/09/01 05:24:27;;;;;;;16.75;6.78;;;;;;;;;;5029595;28;20091;-68
2023/09/01 05:26:52;;;;;;;15.55;7.03;;;;;;;;;;5029625;28;20077;-68
2023/09/01 05:29:18;;;;;;;20.02;7.45;;;;;;;;;;5029419;28;20040;-68
2023/09/01 05:31:43;;;;;;;18.58;6.78;;;;;;;;;;5031326;28;20025;-68
2023/09/01 05:34:09;;;;;;;22.40;6.93;;;;;;;;;;5015366;28;20420;-68
2023/09/01 05:36:36;;;;;;;23.52;7.15;;;;;;;;;;5048568;28;20464;-70
2023/09/01 05:39:02;;;;;;;27.48;7.03;;;;;;;;;;5031914;28;20029;-68
2023/09/01 05:41:28;;;;;;;17.67;6.93;;;;;;;;;;5032479;28;20091;-68
2023/09/01 05:43:53;;;;;;;22.85;6.82;;;;;;;;;;5032864;28;20033;-68
2023/09/01 05:46:19;;;;;;;21.27;6.50;;;;;;;;;;5047365;28;20057;-68
2023/09/01 05:48:45;;;;;;;23.02;6.90;;;;;;;;;;4997516;28;20109;-68
2023/09/01 05:51:10;;;;;;;16.73;6.45;;;;;;;;;;5030240;28;20471;-68
2023/09/01 05:53:36;;;;;;;20.10;6.20;;;;;;;;;;5030184;28;20142;-69
2023/09/01 05:56:02;;;;;;;18.85;6.40;;;;;;;;;;5028790;28;20033;-68
2023/09/01 05:58:29;;;;;;;22.67;6.20;;;;;;;;;;5013794;28;20073;-69
2023/09/01 06:00:54;;;;;;;23.13;7.10;;;;;;;;;;5046569;28;20037;-68
2023/09/01 06:03:20;;;;;;;22.75;6.57;;;;;;;;;;5030224;28;20516;-69
2023/09/01 06:05:45;;;;;;;22.67;5.93;;;;;;;;;;5030024;28;20091;-68
2023/09/01 06:08:12;;;;;;;16.45;6.35;;;;;;;;;;5031218;28;20047;-69
2023/09/01 06:10:37;;;;;;;30.00;6.85;;;;;;;;;;5047402;28;20337;-69
2023/09/01 06:13:03;;;;;;;22.00;6.18;;;;;;;;;;5013616;28;20044;-69
2023/09/01 06:15:29;;;;;;;23.95;6.47;;;;;;;;;;5030836;28;20563;-69
2023/09/01 06:17:55;;;;;;;18.90;6.38;;;;;;;;;;5030991;28;20116;-69
2023/09/01 06:20:21;;;;;;;33.78;7.28;;;;;;;;;;5031374;28;20128;-69
2023/09/01 06:22:50;;;;;;;20.52;5.97;;;;;;;;;;5013871;28;20124;-68
2023/09/01 06:25:16;;;;;;;16.77;5.90;;;;;;;;;;5029781;28;20061;-69
2023/09/01 06:27:42;;;;;;;32.47;8.25;;;;;;;;;;5029908;28;20048;-68
2023/09/01 06:30:08;;;;;;;26.70;5.40;;;;;;;;;;5030035;28;20033;-70
2023/09/01 06:32:34;;;;;;;17.50;6.60;;;;;;;;;;5029873;28;20494;-69
2023/09/01 06:34:59;;;;;;;20.92;5.78;;;;;;;;;;5029591;28;20490;-68
2023/09/01 06:37:25;;;;;;;17.40;5.30;;;;;;;;;;5029686;28;20475;-68
2023/09/01 06:39:51;;;;;;;26.50;6.30;;;;;;;;;;5029980;28;20056;-68
2023/09/01 06:42:17;;;;;;;15.73;4.82;;;;;;;;;;5030630;28;20037;-69
2023/09/01 06:44:42;;;;;;;22.38;6.00;;;;;;;;;;4968263;28;1291246;-69
2023/09/01 06:47:08;;;;;;;24.27;5.32;;;;;;;;;;5014202;28;20187;-69
2023/09/01 06:49:34;;;;;;;17.40;5.75;;;;;;;;;;5014441;28;20045;-69
2023/09/01 06:52:00;;;;;;;18.70;5.70;;;;;;;;;;4997883;28;20091;-69
2023/09/01 06:54:26;;;;;;;19.00;5.60;;;;;;;;;;4997570;28;20479;-69
2023/09/01 06:56:51;;;;;;;18.70;5.55;;;;;;;;;;5047840;28;20037;-69
2023/09/01 06:59:17;;;;;;;14.43;5.40;;;;;;;;;;5031436;28;20447;-69
2023/09/01 07:01:43;;;;;;;22.63;5.47;;;;;;;;;;5014512;28;20029;-69
2023/09/01 07:04:09;;;;;;;18.65;5.18;;;;;;;;;;5047236;28;20026;-69
2023/09/01 07:06:35;;;;;;;18.08;5.53;;;;;;;;;;5014356;28;20049;-69
2023/09/01 07:09:01;;;;;;;27.95;5.50;;;;;;;;;;5017573;28;20365;-69
2023/09/01 07:11:26;;;;;;;22.63;6.22;;;;;;;;;;5051018;28;20049;-69
2023/09/01 07:13:52;;;;;;;23.83;5.85;;;;;;;;;;5050906;28;20049;-69
2023/09/01 07:16:18;;;;;;;13.45;5.40;;;;;;;;;;5017119;28;20088;-69
2023/09/01 07:18:44;;;;;;;15.63;5.07;;;;;;;;;;5000930;28;20033;-69
2023/09/01 07:21:10;;;;;;;12.73;4.90;;;;;;;;;;5017972;28;20037;-69
2023/09/01 07:23:36;;;;;;;19.23;5.00;;;;;;;;;;5017107;28;20452;-69
2023/09/01 07:26:01;;;;;;;27.27;12.60;;;;;;;;;;5034832;28;20111;-69
2023/09/01 07:28:27;;;;;;;18.67;4.95;;;;;;;;;;5034405;28;20045;-69
2023/09/01 07:30:53;;;;;;;12.93;4.70;;;;;;;;;;5000561;28;20091;-69
2023/09/01 07:33:20;;;;;;;16.02;5.07;;;;;;;;;;5033052;28;20063;-69
2023/09/01 07:35:47;;;;;;;16.80;4.80;;;;;;;;;;5032305;28;20380;-70
2023/09/01 07:38:15;;;;;;;20.35;4.72;;;;;;;;;;5035072;28;20029;-70
2023/09/01 07:40:41;;;;;;;14.98;4.35;;;;;;;;;;5034263;28;20037;-71
2023/09/01 07:43:07;;;;;;;10.80;4.50;;;;;;;;;;5034992;28;20037;-71
2023/09/01 07:45:33;;;;;;;10.52;4.20;;;;;;;;;;5029606;28;20064;-70
2023/09/01 07:47:59;;;;;;;17.60;4.90;;;;;;;;;;5033920;28;20529;-70
2023/09/01 07:50:30;;;;;;;17.45;4.72;;;;;;;;;;5033866;28;20041;-70
2023/09/01 07:52:57;;;;;;;14.13;4.20;;;;;;;;;;5064517;28;20090;-70
2023/09/01 07:55:23;;;;;;;17.40;4.22;;;;;;;;;;4999076;28;20072;-71
2023/09/01 07:57:49;;;;;;;21.05;3.92;;;;;;;;;;5031508;28;20526;-70
2023/09/01 08:00:17;;;;;;;15.45;4.53;;;;;;;;;;5032250;28;20056;-70
2023/09/01 08:02:44;;;;;;;22.92;3.78;;;;;;;;;;5014773;28;20491;-70
2023/09/01 08:05:11;;;;;;;18.73;4.18;;;;;;;;;;5031811;28;20045;-71
2023/09/01 08:07:37;;;;;;;19.20;4.00;;;;;;;;;;5032427;28;20511;-71
2023/09/01 08:10:06;;;;;;;13.75;3.85;;;;;;;;;;5031793;28;20037;-71
2023/09/01 08:12:32;;;;;;;18.85;4.10;;;;;;;;;;5030222;28;20128;-70
2023/09/01 08:14:57;;;;;;;11.95;3.67;;;;;;;;;;5032454;28;20080;-71
2023/09/01 08:17:24;;;;;;;13.07;4.10;;;;;;;;;;5032069;28;20072;-70
2023/09/01 08:19:50;;;;;;;11.18;3.55;;;;;;;;;;5030080;28;20140;-70
2023/09/01 08:22:16;;;;;;;17.50;4.10;;;;;;;;;;5031039;28;20030;-70
2023/09/01 08:24:42;;;;;;;17.13;3.90;;;;;;;;;;5030739;28;20418;-71
2023/09/01 08:27:08;;;;;;;10.65;3.33;;;;;;;;;;5014656;28;20043;-71
2023/09/01 08:29:34;;;;;;;13.38;3.78;;;;;;;;;;5014294;28;20101;-70
2023/09/01 08:32:01;;;;;;;13.23;3.38;;;;;;;;;;5031017;28;20140;-70
2023/09/01 08:34:28;;;;;;;13.20;3.50;;;;;;;;;;5014863;28;20033;-71
2023/09/01 08:36:54;;;;;;;10.45;3.08;;;;;;;;;;5031972;28;20095;-70
2023/09/01 08:39:20;;;;;;;19.02;3.80;;;;;;;;;;5014151;28;20038;-70
2023/09/01 08:41:48;;;;;;;9.35;3.40;;;;;;;;;;5014110;28;20388;-69
2023/09/01 08:44:20;;;;;;;9.20;3.13;;;;;;;;;;4998183;28;20033;-71
2023/09/01 08:46:52;;;;;;;10.23;2.92;;;;;;;;;;5014292;28;20045;-71
2023/09/01 08:49:23;;;;;;;6.72;2.65;;;;;;;;;;5031010;28;20345;-70
2023/09/01 08:51:53;;;;;;;;;;;;;;;;;;4999551;28;20038;-71
2023/09/01 08:54:19;;;;;;;10.98;2.92;;;;;;;;;;5013953;28;19913;-70
2023/09/01 08:56:44;;;;;;;12.75;3.08;;;;;;;;;;5013916;28;20033;-70
2023/09/01 08:59:11;;;;;;;12.50;2.95;;;;;;;;;;4997997;28;20518;-70
2023/09/01 09:01:37;;;;;;;9.10;2.80;;;;;;;;;;5031240;28;20049;-70
2023/09/01 09:04:04;;;;;;;7.28;2.80;;;;;;;;;;5029605;28;20491;-70
2023/09/01 09:06:33;;;;;;;6.93;2.60;;;;;;;;;;5028009;28;20056;-69
2023/09/01 09:09:15;;;;;;;10.95;2.58;;;;;;;;;;5029497;28;20041;-69
2023/09/01 09:11:57;;;;;;;10.95;3.22;;;;;;;;;;5027720;28;20041;-70
2023/09/01 09:14:30;;;;;;;9.07;2.90;;;;;;;;;;5028794;28;20510;-70
2023/09/01 09:16:57;;;;;;;12.25;2.47;;;;;;;;;;5013307;28;20045;-69
2023/09/01 09:19:25;;;;;;;10.07;2.63;;;;;;;;;;5013667;28;20052;-69
2023/09/01 09:22:04;;;;;;;13.70;2.60;;;;;;;;;;5014140;28;20037;-70
2023/09/01 09:24:36;;;;;;;8.10;2.30;;;;;;;;;;5029947;28;20053;-69
2023/09/01 09:27:05;;;;;;;8.88;2.40;;;;;;;;;;5013490;28;20033;-69
2023/09/01 09:29:31;;;;;;;;;;;;;;;;;;5030299;28;20095;-70
2023/09/01 09:31:57;;;;;;;10.30;2.67;;;;;;;;;;5013335;28;19921;-70
2023/09/01 09:34:23;;;;;;;9.98;2.72;;;;;;;;;;5029444;28;20371;-69
2023/09/01 09:36:49;;;;;;;11.10;2.20;;;;;;;;;;5029425;28;20048;-70
2023/09/01 09:39:34;;;;;;;13.50;2.60;;;;;;;;;;5029759;28;20037;-69
2023/09/01 09:42:00;;;;;;;11.32;2.80;;;;;;;;;;5029826;28;20057;-70
2023/09/01 09:44:31;;;;;;;10.85;2.90;;;;;;;;;;5029569;28;20087;-70
2023/09/01 09:46:58;;;;;;;9.38;2.55;;;;;;;;;;5012409;28;20057;-70
2023/09/01 09:49:24;;;;;;;11.88;2.63;;;;;;;;;;5012474;28;20120;-70
2023/09/01 09:51:52;;;;;;;23.75;2.92;;;;;;;;;;5028903;28;20165;-70
2023/09/01 09:54:21;;;;;;;14.50;2.50;;;;;;;;;;5028607;28;20033;-70
2023/09/01 09:56:51;;;;;;;7.78;2.45;;;;;;;;;;5061607;28;20049;-71
2023/09/01 09:59:40;;;;;;;7.13;2.60;;;;;;;;;;5048030;28;20045;-71
2023/09/01 10:02:15;;;;;;;9.27;2.60;;;;;;;;;;5028255;28;20053;-70
2023/09/01 10:04:43;;;;;;;5.18;2.60;;;;;;;;;;5047272;28;20495;-71
2023/09/01 10:07:10;;;;;;;15.67;2.73;;;;;;;;;;5048088;28;20029;-71
2023/09/01 10:09:37;;;;;;;8.63;2.40;;;;;;;;;;5031961;28;20490;-70
2023/09/01 10:12:03;;;;;;;12.85;2.92;;;;;;;;;;5014438;28;20045;-70
2023/09/01 10:14:30;;;;;;;9.80;2.50;;;;;;;;;;5031835;28;20056;-69
2023/09/01 10:16:57;;;;;;;11.88;2.67;;;;;;;;;;5031631;28;20048;-70
2023/09/01 10:19:24;;;;;;;8.80;2.67;;;;;;;;;;5031592;28;20635;-72
2023/09/01 10:21:50;;;;;;;6.80;2.58;;;;;;;;;;5031272;28;20068;-70
2023/09/01 10:24:16;;;;;;;6.55;2.45;;;;;;;;;;5015039;28;20073;-69
2023/09/01 10:26:43;;;;;;;7.90;2.70;;;;;;;;;;5014654;28;20091;-69
2023/09/01 10:29:10;;;;;;;7.78;2.50;;;;;;;;;;5047351;28;20048;-70
2023/09/01 10:31:36;;;;;;;15.20;2.60;;;;;;;;;;5029875;28;20044;-70
2023/09/01 10:34:02;;;;;;;7.13;2.60;;;;;;;;;;5029008;28;20056;-69
2023/09/01 10:36:28;;;;;;;6.10;2.75;;;;;;;;;;5012868;28;20045;-69
2023/09/01 10:38:53;;;;;;;8.07;2.83;;;;;;;;;;5029067;28;20045;-70
2023/09/01 10:41:39;;;;;;;8.18;2.78;;;;;;;;;;5030026;28;20456;-70
2023/09/01 10:44:05;;;;;;;8.40;3.28;;;;;;;;;;5015603;28;20099;-69
2023/09/01 10:46:31;;;;;;;6.15;2.40;;;;;;;;;;5032401;28;20065;-69
2023/09/01 10:48:57;;;;;;;6.05;2.40;;;;;;;;;;5034285;28;20037;-69
2023/09/01 10:51:25;;;;;;;16.17;2.80;;;;;;;;;;5032817;28;20049;-69
2023/09/01 10:53:52;;;;;;;10.80;2.47;;;;;;;;;;5032775;28;20144;-69
2023/09/01 10:56:20;;;;;;;10.88;2.85;;;;;;;;;;5032652;28;20099;-70
2023/09/01 10:58:52;;;;;;;10.85;2.80;;;;;;;;;;5015154;28;20152;-69
2023/09/01 11:01:27;;;;;;;7.25;2.50;;;;;;;;;;5018991;28;20046;-71
2023/09/01 11:03:53;;;;;;;7.75;2.78;;;;;;;;;;4978826;28;20498;-69
2023/09/01 11:06:21;;;;;;;7.30;2.80;;;;;;;;;;5005745;28;20078;-68
2023/09/01 11:08:56;;;;;;;9.75;2.72;;;;;;;;;;5010486;28;20046;-70
2023/09/01 11:11:21;;;;;;;6.70;2.72;;;;;;;;;;5014771;28;20238;-69
2023/09/01 11:13:52;;;;;;;12.95;3.40;;;;;;;;;;5017333;28;20489;-69
2023/09/01 11:16:17;;;;;;;9.95;3.42;;;;;;;;;;5014587;28;20113;-68
2023/09/01 11:18:46;;;;;;;10.95;3.60;;;;;;;;;;5006289;28;20152;-69
2023/09/01 11:21:12;;;;;;;10.85;2.80;;;;;;;;;;5014517;28;20460;-68
2023/09/01 11:23:38;;;;;;;10.57;2.80;;;;;;;;;;5021568;28;20051;-70
2023/09/01 11:26:04;;;;;;;5.60;2.70;;;;;;;;;;5022619;28;20033;-70
2023/09/01 11:28:30;;;;;;;5.95;2.72;;;;;;;;;;5012100;28;20116;-70
2023/09/01 11:31:01;;;;;;;10.32;3.00;;;;;;;;;;5048297;28;20087;-69
2023/09/01 11:33:27;;;;;;;11.52;2.92;;;;;;;;;;5036374;28;20414;-69
2023/09/01 11:36:07;;;;;;;5.78;2.80;;;;;;;;;;5031732;28;20083;-68
2023/09/01 11:38:34;;;;;;;10.70;2.90;;;;;;;;;;5037108;28;20163;-68
2023/09/01 11:41:01;;;;;;;10.23;3.00;;;;;;;;;;5032460;28;20037;-69
2023/09/01 11:43:27;;;;;;;14.63;3.60;;;;;;;;;;5031963;28;20037;-68
2023/09/01 11:45:53;;;;;;;9.63;3.75;;;;;;;;;;5031292;28;20332;-70
2023/09/01 11:48:25;;;;;;;16.50;3.58;;;;;;;;;;5033409;28;20037;-68
2023/09/01 11:50:55;;;;;;;17.13;3.47;;;;;;;;;;5016862;28;20467;-68
2023/09/01 11:53:22;;;;;;;5.50;3.40;;;;;;;;;;5034015;28;20492;-67
2023/09/01 11:55:48;;;;;;;9.80;3.00;;;;;;;;;;5032681;28;20040;-67
2023/09/01 11:58:15;;;;;;;14.55;3.72;;;;;;;;;;5033854;28;20049;-68
2023/09/01 12:00:40;;;;;;;11.80;3.47;;;;;;;;;;5032702;28;20383;-67
2023/09/01 12:03:06;;;;;;;7.53;3.10;;;;;;;;;;5033721;28;20195;-67
2023/09/01 12:05:36;;;;;;;10.90;3.22;;;;;;;;;;5033125;28;20033;-67
2023/09/01 12:08:03;;;;;;;16.70;3.60;;;;;;;;;;5033025;28;20383;-68
2023/09/01 12:10:29;;;;;;;9.00;3.53;;;;;;;;;;5033740;28;20064;-67
2023/09/01 12:13:21;;;;;;;15.48;3.83;;;;;;;;;;5032661;28;20040;-67
2023/09/01 12:15:53;;;;;;;12.05;3.15;;;;;;;;;;5031941;28;20435;-67
2023/09/01 12:18:29;;;;;;;13.32;4.25;;;;;;;;;;5032006;28;20152;-67
2023/09/01 12:20:55;;;;;;;15.65;3.83;;;;;;;;;;5015324;28;20054;-67
2023/09/01 12:23:28;;;;;;;13.23;3.53;;;;;;;;;;5015043;28;20341;-67
2023/09/01 12:25:55;;;;;;;8.82;3.50;;;;;;;;;;4982680;28;20049;-68
2023/09/01 12:28:21;;;;;;;7.13;3.20;;;;;;;;;;5015762;28;20032;-69
2023/09/01 12:30:47;;;;;;;6.70;3.17;;;;;;;;;;5014391;28;20043;-70
2023/09/01 12:33:13;;;;;;;11.73;3.33;;;;;;;;;;5020201;28;20049;-69
2023/09/01 12:35:42;;;;;;;8.35;3.00;;;;;;;;;;5030629;28;20140;-69
2023/09/01 12:38:08;;;;;;;8.73;3.30;;;;;;;;;;5014716;28;20057;-70
2023/09/01 12:40:34;;;;;;;8.68;3.00;;;;;;;;;;4997481;28;20033;-70
2023/09/01 12:43:02;;;;;;;14.02;3.75;;;;;;;;;;4994128;28;20038;-70
2023/09/01 12:45:29;;;;;;;10.50;3.63;;;;;;;;;;5002435;28;20169;-69
2023/09/01 12:47:55;;;;;;;11.98;3.85;;;;;;;;;;4997195;28;20071;-68
2023/09/01 12:50:22;;;;;;;13.23;3.78;;;;;;;;;;5029938;28;20033;-70
2023/09/01 12:52:48;;;;;;;10.77;3.70;;;;;;;;;;4996591;28;20092;-70
2023/09/01 12:55:14;;;;;;;8.93;3.30;;;;;;;;;;5013375;28;20491;-70
2023/09/01 12:57:40;;;;;;;8.18;3.78;;;;;;;;;;5013131;28;20049;-71
2023/09/01 13:00:06;;;;;;;12.48;3.55;;;;;;;;;;4980449;28;20025;-70
2023/09/01 13:02:33;;;;;;;6.95;3.40;;;;;;;;;;4981065;28;20037;-69
2023/09/01 13:05:00;;;;;;;9.40;3.45;;;;;;;;;;5027037;28;20055;-69
2023/09/01 13:07:26;;;;;;;14.52;3.85;;;;;;;;;;5017376;28;20554;-69
2023/09/01 13:09:52;;;;;;;10.93;3.10;;;;;;;;;;5050227;28;20086;-69
2023/09/01 13:12:18;;;;;;;9.70;3.33;;;;;;;;;;5033020;28;20036;-68
2023/09/01 13:14:43;;;;;;;7.53;3.05;;;;;;;;;;5051461;28;20035;-69
2023/09/01 13:17:09;;;;;;;11.35;3.15;;;;;;;;;;5050402;28;20472;-69
2023/09/01 13:19:35;;;;;;;14.55;3.05;;;;;;;;;;5017920;28;20483;-68
2023/09/01 13:22:02;;;;;;;7.38;3.30;;;;;;;;;;5033396;28;20041;-68
2023/09/01 13:24:28;;;;;;;12.13;3.55;;;;;;;;;;5033677;28;20033;-68
2023/09/01 13:26:54;;;;;;;10.98;3.08;;;;;;;;;;5050143;28;20052;-69
2023/09/01 13:29:19;;;;;;;12.45;3.15;;;;;;;;;;5017561;28;20116;-71
2023/09/01 13:31:45;;;;;;;16.30;3.40;;;;;;;;;;5017255;28;20048;-67
2023/09/01 13:34:11;;;;;;;10.35;3.35;;;;;;;;;;5050412;28;20090;-68
2023/09/01 13:36:37;;;;;;;10.27;3.55;;;;;;;;;;5050535;28;20549;-68
2023/09/01 13:39:03;;;;;;;14.00;3.75;;;;;;;;;;5040607;28;20045;-67
2023/09/01 13:41:29;;;;;;;8.13;3.65;;;;;;;;;;5042211;28;20534;-66
2023/09/01 13:43:54;;;;;;;11.85;4.00;;;;;;;;;;5032828;28;20056;-66
2023/09/01 13:46:21;;;;;;;8.48;3.40;;;;;;;;;;5037507;28;20492;-66
2023/09/01 13:48:51;;;;;;;8.82;3.78;;;;;;;;;;5033642;28;20124;-66
2023/09/01 13:51:17;;;;;;;17.02;3.40;;;;;;;;;;5033838;28;20037;-66
2023/09/01 13:53:43;;;;;;;16.25;3.38;;;;;;;;;;5050151;28;20389;-67
2023/09/01 13:56:08;;;;;;;14.75;3.78;;;;;;;;;;5033788;28;20056;-66
2023/09/01 13:58:34;;;;;;;11.40;3.75;;;;;;;;;;5018088;28;20084;-67
2023/09/01 14:01:00;;;;;;;10.52;2.90;;;;;;;;;;5050372;28;20037;-67
2023/09/01 14:03:25;;;;;;;9.13;3.00;;;;;;;;;;5050880;28;20040;-66
2023/09/01 14:05:52;;;;;;;9.40;3.00;;;;;;;;;;5034133;28;20051;-67
2023/09/01 14:08:18;;;;;;;9.68;3.45;;;;;;;;;;5050068;28;20037;-67
2023/09/01 14:10:43;;;;;;;12.40;3.25;;;;;;;;;;5049508;28;20132;-67
2023/09/01 14:13:09;;;;;;;4.68;2.60;;;;;;;;;;5048922;28;20041;-66
2023/09/01 14:15:35;;;;;;;11.85;2.50;;;;;;;;;;5033178;28;20041;-66
2023/09/01 14:18:02;;;;;;;10.90;3.03;;;;;;;;;;5051708;28;20049;-66
2023/09/01 14:20:29;;;;;;;10.65;2.88;;;;;;;;;;5053129;28;20045;-66
2023/09/01 14:22:59;;;;;;;4.25;2.58;;;;;;;;;;5054008;28;20037;-67
2023/09/01 14:25:25;;;;;;;8.90;3.25;;;;;;;;;;5037177;28;20383;-67
2023/09/01 14:27:51;;;;;;;21.85;4.47;;;;;;;;;;5057051;28;20056;-66
2023/09/01 14:30:17;;;;;;;11.25;3.65;;;;;;;;;;5057087;28;20439;-67
2023/09/01 14:32:44;;;;;;;11.90;3.15;;;;;;;;;;5037795;28;20037;-67